Terminal Aerodrome Forecast
Issued by NWS

Home | Current Version | Previous Version | Text Only | Print | Product List | Glossary On
Versions: 1 2 3 4 5 6 7 8 9 10 11 12 13 14 15 16 17 18 19 20 21 22
000
FTUS43 KLSX 280520
TAFUIN
TAF
KUIN 280520Z 2806/2906 28004KT P6SM SCT035 BKN150
     FM281000 32006KT P6SM BKN025
      TEMPO 2810/2813 BKN015
     FM281400 31008KT P6SM BKN035
     FM281800 31011KT P6SM SCT050=

USA.gov is the U.S. government's official web portal to all federal, state and local government web resources and services.